sensor_id;sensor_type;location;lat;lon;timestamp;pressure;altitude;pressure_sealevel;temperature;humidity
36386;BME280;24125;47.482;8.770;2023-02-20T00:01:45;97425.75;;;12.41;57.77
36386;BME280;24125;47.482;8.770;2023-02-20T00:04:18;97429.84;;;12.39;57.84
36386;BME280;24125;47.482;8.770;2023-02-20T00:06:51;97427.66;;;12.41;57.60
36386;BME280;24125;47.482;8.770;2023-02-20T00:09:24;97427.16;;;12.39;57.27
36386;BME280;24125;47.482;8.770;2023-02-20T00:11:58;97432.22;;;12.40;57.24
36386;BME280;24125;47.482;8.770;2023-02-20T00:14:31;97434.41;;;12.38;58.03
36386;BME280;24125;47.482;8.770;2023-02-20T00:17:06;97436.78;;;12.40;57.11
36386;BME280;24125;47.482;8.770;2023-02-20T00:19:38;97439.75;;;12.38;57.54
36386;BME280;24125;47.482;8.770;2023-02-20T00:22:12;97447.78;;;12.38;57.41
36386;BME280;24125;47.482;8.770;2023-02-20T00:24:44;97444.31;;;12.38;57.28
36386;BME280;24125;47.482;8.770;2023-02-20T00:27:17;97448.56;;;12.39;58.04
36386;BME280;24125;47.482;8.770;2023-02-20T00:29:50;97448.56;;;12.39;57.42
36386;BME280;24125;47.482;8.770;2023-02-20T00:32:26;97446.19;;;12.37;57.40
36386;BME280;24125;47.482;8.770;2023-02-20T00:34:59;97441.19;;;12.36;57.33
36386;BME280;24125;47.482;8.770;2023-02-20T00:37:32;97444.66;;;12.36;57.28
36386;BME280;24125;47.482;8.770;2023-02-20T00:40:06;97446.19;;;12.37;57.66
36386;BME280;24125;47.482;8.770;2023-02-20T00:42:39;97445.75;;;12.35;57.46
36386;BME280;24125;47.482;8.770;2023-02-20T00:45:13;97449.22;;;12.36;57.56
36386;BME280;24125;47.482;8.770;2023-02-20T00:47:48;97460.72;;;12.36;57.82
36386;BME280;24125;47.482;8.770;2023-02-20T00:50:21;97462.59;;;12.36;57.56
36386;BME280;24125;47.482;8.770;2023-02-20T00:52:54;97456.44;;;12.35;57.56
36386;BME280;24125;47.482;8.770;2023-02-20T00:55:27;97462.59;;;12.36;57.71
36386;BME280;24125;47.482;8.770;2023-02-20T00:58:00;97460.72;;;12.36;57.76
36386;BME280;24125;47.482;8.770;2023-02-20T01:00:33;97458.34;;;12.35;57.63
36386;BME280;24125;47.482;8.770;2023-02-20T01:03:07;97456.44;;;12.35;57.79
36386;BME280;24125;47.482;8.770;2023-02-20T01:05:40;97463.69;;;12.35;58.12
36386;BME280;24125;47.482;8.770;2023-02-20T01:08:13;97454.06;;;12.34;57.54
36386;BME280;24125;47.482;8.770;2023-02-20T01:10:46;97459.44;;;12.34;57.75
36386;BME280;24125;47.482;8.770;2023-02-20T01:13:19;97465.88;;;12.33;57.49
36386;BME280;24125;47.482;8.770;2023-02-20T01:15:52;97464.00;;;12.33;57.34
36386;BME280;24125;47.482;8.770;2023-02-20T01:18:27;97463.19;;;12.33;57.48
36386;BME280;24125;47.482;8.770;2023-02-20T01:21:00;97462.41;;;12.32;58.29
36386;BME280;24125;47.482;8.770;2023-02-20T01:23:33;97454.66;;;12.31;57.31
36386;BME280;24125;47.482;8.770;2023-02-20T01:26:06;97456.56;;;12.30;57.74
36386;BME280;24125;47.482;8.770;2023-02-20T01:28:42;97453.09;;;12.30;58.12
36386;BME280;24125;47.482;8.770;2023-02-20T01:31:15;97447.25;;;12.28;57.64
36386;BME280;24125;47.482;8.770;2023-02-20T01:33:49;97458.75;;;12.28;57.60
36386;BME280;24125;47.482;8.770;2023-02-20T01:36:22;97456.69;;;12.25;57.58
36386;BME280;24125;47.482;8.770;2023-02-20T01:38:56;97462.34;;;12.24;57.58
36386;BME280;24125;47.482;8.770;2023-02-20T01:41:29;97450.34;;;12.21;57.35
36386;BME280;24125;47.482;8.770;2023-02-20T01:44:02;97451.44;;;12.20;57.98
36386;BME280;24125;47.482;8.770;2023-02-20T01:46:48;97456.50;;;12.22;57.65
36386;BME280;24125;47.482;8.770;2023-02-20T01:49:39;97458.38;;;12.21;58.12
36386;BME280;24125;47.482;8.770;2023-02-20T01:52:17;97458.69;;;12.20;58.13
36386;BME280;24125;47.482;8.770;2023-02-20T01:54:54;97459.78;;;12.19;57.66
36386;BME280;24125;47.482;8.770;2023-02-20T01:57:31;97458.50;;;12.16;57.34
36386;BME280;24125;47.482;8.770;2023-02-20T02:00:08;97468.91;;;12.18;57.67
36386;BME280;24125;47.482;8.770;2023-02-20T02:02:46;97455.03;;;12.16;57.74
36386;BME280;24125;47.482;8.770;2023-02-20T02:05:22;97457.72;;;12.16;57.50
36386;BME280;24125;47.482;8.770;2023-02-20T02:07:57;97448.91;;;12.15;58.16
36386;BME280;24125;47.482;8.770;2023-02-20T02:10:35;97445.13;;;12.16;58.27
36386;BME280;24125;47.482;8.770;2023-02-20T02:13:09;97447.31;;;12.14;57.72
36386;BME280;24125;47.482;8.770;2023-02-20T02:15:42;97441.94;;;12.14;57.85
36386;BME280;24125;47.482;8.770;2023-02-20T02:18:25;97445.13;;;12.16;57.98
36386;BME280;24125;47.482;8.770;2023-02-20T02:37:24;97441.28;;;12.08;57.75
36386;BME280;24125;47.482;8.770;2023-02-20T02:40:02;97444.25;;;12.07;58.10
36386;BME280;24125;47.482;8.770;2023-02-20T02:42:41;97436.25;;;12.07;58.62
36386;BME280;24125;47.482;8.770;2023-02-20T02:45:26;97434.94;;;12.04;58.45
36386;BME280;24125;47.482;8.770;2023-02-20T02:48:05;97429.91;;;12.03;58.39
36386;BME280;24125;47.482;8.770;2023-02-20T02:50:42;97429.44;;;12.01;58.41
36386;BME280;24125;47.482;8.770;2023-02-20T02:53:18;97429.72;;;11.99;58.33
36386;BME280;24125;47.482;8.770;2023-02-20T02:55:51;97427.66;;;11.96;58.90
36386;BME280;24125;47.482;8.770;2023-02-20T02:58:24;97428.75;;;11.95;58.21
36386;BME280;24125;47.482;8.770;2023-02-20T03:01:00;97432.22;;;11.96;58.91
36386;BME280;24125;47.482;8.770;2023-02-20T03:03:37;97430.16;;;11.93;58.62
36386;BME280;24125;47.482;8.770;2023-02-20T03:06:16;97424.00;;;11.92;59.02
36386;BME280;24125;47.482;8.770;2023-02-20T03:08:59;97417.06;;;11.91;58.86
36386;BME280;24125;47.482;8.770;2023-02-20T03:11:34;97424.59;;;11.89;58.93
36386;BME280;24125;47.482;8.770;2023-02-20T03:14:11;97423.03;;;11.88;58.94
36386;BME280;24125;47.482;8.770;2023-02-20T03:17:07;97422.22;;;11.88;59.04
36386;BME280;24125;47.482;8.770;2023-02-20T03:19:45;97420.47;;;11.83;58.40
36386;BME280;24125;47.482;8.770;2023-02-20T03:22:23;97423.75;;;11.80;58.86
36386;BME280;24125;47.482;8.770;2023-02-20T03:25:02;97409.41;;;11.76;58.13
36386;BME280;24125;47.482;8.770;2023-02-20T03:27:39;97404.91;;;11.71;57.95
36386;BME280;24125;47.482;8.770;2023-02-20T03:30:17;97406.63;;;11.67;58.71
36386;BME280;24125;47.482;8.770;2023-02-20T03:32:56;97405.13;;;11.61;58.36
36386;BME280;24125;47.482;8.770;2023-02-20T03:35:50;97398.63;;;11.54;58.13
36386;BME280;24125;47.482;8.770;2023-02-20T03:38:47;97392.91;;;11.47;58.42
36386;BME280;24125;47.482;8.770;2023-02-20T03:41:42;97398.47;;;11.37;58.64
36386;BME280;24125;47.482;8.770;2023-02-20T03:44:37;97396.28;;;11.25;58.06
36386;BME280;24125;47.482;8.770;2023-02-20T03:47:12;97398.59;;;11.18;58.44
36386;BME280;24125;47.482;8.770;2023-02-20T03:49:48;97389.22;;;11.07;58.37
36386;BME280;24125;47.482;8.770;2023-02-20T03:52:24;97379.31;;;10.93;58.37
36386;BME280;24125;47.482;8.770;2023-02-20T03:54:57;97376.84;;;10.83;58.59
36386;BME280;24125;47.482;8.770;2023-02-20T03:57:34;97388.50;;;10.74;58.65
36386;BME280;24125;47.482;8.770;2023-02-20T04:00:12;97387.44;;;10.61;58.49
36386;BME280;24125;47.482;8.770;2023-02-20T04:02:50;97389.78;;;10.49;58.48
36386;BME280;24125;47.482;8.770;2023-02-20T04:05:26;97383.34;;;10.36;59.09
36386;BME280;24125;47.482;8.770;2023-02-20T04:08:04;97379.53;;;10.24;59.20
36386;BME280;24125;47.482;8.770;2023-02-20T04:10:42;97379.97;;;10.12;59.33
36386;BME280;24125;47.482;8.770;2023-02-20T04:13:18;97378.56;;;10.01;59.30
36386;BME280;24125;47.482;8.770;2023-02-20T04:15:52;97369.72;;;9.87;59.38
36386;BME280;24125;47.482;8.770;2023-02-20T04:18:26;97374.13;;;9.77;59.39
36386;BME280;24125;47.482;8.770;2023-02-20T04:21:03;97382.59;;;9.66;59.48
36386;BME280;24125;47.482;8.770;2023-02-20T04:23:41;97377.41;;;9.56;59.62
36386;BME280;24125;47.482;8.770;2023-02-20T04:26:18;97382.88;;;9.45;59.76
36386;BME280;24125;47.482;8.770;2023-02-20T04:28:54;97380.84;;;9.37;60.04
36386;BME280;24125;47.482;8.770;2023-02-20T04:31:27;97379.91;;;9.28;60.12
36386;BME280;24125;47.482;8.770;2023-02-20T04:34:01;97377.69;;;9.17;60.06
36386;BME280;24125;47.482;8.770;2023-02-20T04:36:33;97383.34;;;9.10;60.61
36386;BME280;24125;47.482;8.770;2023-02-20T04:39:06;97378.66;;;9.02;60.57
36386;BME280;24125;47.482;8.770;2023-02-20T04:41:39;97375.81;;;8.93;60.34
36386;BME280;24125;47.482;8.770;2023-02-20T04:44:14;97369.00;;;8.87;60.87
36386;BME280;24125;47.482;8.770;2023-02-20T04:47:11;97373.34;;;8.78;60.96
36386;BME280;24125;47.482;8.770;2023-02-20T04:49:45;97360.94;;;8.68;60.98
36386;BME280;24125;47.482;8.770;2023-02-20T04:52:17;97365.53;;;8.63;61.40
36386;BME280;24125;47.482;8.770;2023-02-20T04:54:51;97366.16;;;8.55;61.49
36386;BME280;24125;47.482;8.770;2023-02-20T04:57:24;97369.16;;;8.48;61.11
36386;BME280;24125;47.482;8.770;2023-02-20T04:59:58;97370.00;;;8.44;61.26
36386;BME280;24125;47.482;8.770;2023-02-20T05:02:31;97371.13;;;8.38;61.24
36386;BME280;24125;47.482;8.770;2023-02-20T05:05:06;97372.53;;;8.30;61.78
36386;BME280;24125;47.482;8.770;2023-02-20T05:07:39;97376.81;;;8.26;61.18
36386;BME280;24125;47.482;8.770;2023-02-20T05:10:13;97372.88;;;8.18;61.78
36386;BME280;24125;47.482;8.770;2023-02-20T05:12:46;97373.72;;;8.14;61.42
36386;BME280;24125;47.482;8.770;2023-02-20T05:15:22;97370.56;;;8.12;61.89
36386;BME280;24125;47.482;8.770;2023-02-20T05:17:55;97376.69;;;8.07;62.27
36386;BME280;24125;47.482;8.770;2023-02-20T05:20:28;97375.97;;;8.02;62.30
36386;BME280;24125;47.482;8.770;2023-02-20T05:23:15;97377.84;;;7.96;62.58
36386;BME280;24125;47.482;8.770;2023-02-20T05:25:48;97380.28;;;7.92;62.28
36386;BME280;24125;47.482;8.770;2023-02-20T05:28:20;97379.78;;;7.90;62.22
36386;BME280;24125;47.482;8.770;2023-02-20T05:30:55;97373.44;;;7.86;62.54
36386;BME280;24125;47.482;8.770;2023-02-20T05:33:28;97378.78;;;7.81;62.18
36386;BME280;24125;47.482;8.770;2023-02-20T05:36:01;97375.38;;;7.76;62.07
36386;BME280;24125;47.482;8.770;2023-02-20T05:38:34;97377.50;;;7.74;61.90
36386;BME280;24125;47.482;8.770;2023-02-20T05:41:07;97372.50;;;7.67;62.10
36386;BME280;24125;47.482;8.770;2023-02-20T05:43:40;97377.06;;;7.62;61.93
36386;BME280;24125;47.482;8.770;2023-02-20T05:46:15;97369.94;;;7.57;62.47
36386;BME280;24125;47.482;8.770;2023-02-20T05:48:48;97370.72;;;7.52;61.68
36386;BME280;24125;47.482;8.770;2023-02-20T05:51:23;97370.50;;;7.49;62.48
36386;BME280;24125;47.482;8.770;2023-02-20T05:53:56;97363.66;;;7.43;62.38
36386;BME280;24125;47.482;8.770;2023-02-20T05:56:29;97374.03;;;7.39;62.94
36386;BME280;24125;47.482;8.770;2023-02-20T05:59:03;97359.19;;;7.33;62.51
36386;BME280;24125;47.482;8.770;2023-02-20T06:01:37;97365.84;;;7.31;63.37
36386;BME280;24125;47.482;8.770;2023-02-20T06:04:11;97377.78;;;7.28;62.87
36386;BME280;24125;47.482;8.770;2023-02-20T06:06:44;97370.66;;;7.24;62.86
36386;BME280;24125;47.482;8.770;2023-02-20T06:09:17;97372.78;;;7.22;63.49
36386;BME280;24125;47.482;8.770;2023-02-20T06:11:51;97378.09;;;7.22;63.00
36386;BME280;24125;47.482;8.770;2023-02-20T06:14:25;97376.28;;;7.17;63.72
36386;BME280;24125;47.482;8.770;2023-02-20T06:16:59;97377.59;;;7.19;63.17
36386;BME280;24125;47.482;8.770;2023-02-20T06:19:32;97382.41;;;7.17;62.97
36386;BME280;24125;47.482;8.770;2023-02-20T06:22:05;97374.69;;;7.16;62.82
36386;BME280;24125;47.482;8.770;2023-02-20T06:24:38;97368.06;;;7.13;63.05
36386;BME280;24125;47.482;8.770;2023-02-20T06:27:11;97370.97;;;7.12;63.11
36386;BME280;24125;47.482;8.770;2023-02-20T06:29:46;97374.72;;;7.11;62.65
36386;BME280;24125;47.482;8.770;2023-02-20T06:32:20;97367.00;;;7.09;63.32
36386;BME280;24125;47.482;8.770;2023-02-20T06:34:53;97362.00;;;7.03;63.20
36386;BME280;24125;47.482;8.770;2023-02-20T06:37:26;97359.13;;;6.99;63.40
36386;BME280;24125;47.482;8.770;2023-02-20T06:39:59;97355.41;;;6.95;63.44
36386;BME280;24125;47.482;8.770;2023-02-20T06:42:32;97360.19;;;6.93;62.94
36386;BME280;24125;47.482;8.770;2023-02-20T06:45:05;97366.56;;;6.92;63.33
36386;BME280;24125;47.482;8.770;2023-02-20T06:47:40;97367.34;;;6.93;63.57
36386;BME280;24125;47.482;8.770;2023-02-20T06:50:13;97362.59;;;6.90;63.73
36386;BME280;24125;47.482;8.770;2023-02-20T06:52:46;97366.84;;;6.91;64.09
36386;BME280;24125;47.482;8.770;2023-02-20T06:55:19;97368.44;;;6.92;63.85
36386;BME280;24125;47.482;8.770;2023-02-20T06:57:52;97368.94;;;6.94;64.55
36386;BME280;24125;47.482;8.770;2023-02-20T07:00:25;97367.09;;;6.94;64.43
36386;BME280;24125;47.482;8.770;2023-02-20T07:03:00;97370.81;;;6.98;64.18
36386;BME280;24125;47.482;8.770;2023-02-20T07:05:33;97370.22;;;7.01;64.69
36386;BME280;24125;47.482;8.770;2023-02-20T07:08:06;97366.25;;;7.04;64.52
36386;BME280;24125;47.482;8.770;2023-02-20T07:10:39;97368.09;;;7.08;64.60
36386;BME280;24125;47.482;8.770;2023-02-20T07:13:12;97373.38;;;7.13;64.87
36386;BME280;24125;47.482;8.770;2023-02-20T07:15:45;97378.66;;;7.18;64.43
36386;BME280;24125;47.482;8.770;2023-02-20T07:18:19;97376.78;;;7.24;64.09
36386;BME280;24125;47.482;8.770;2023-02-20T07:20:54;97386.81;;;7.32;64.04
36386;BME280;24125;47.482;8.770;2023-02-20T07:23:27;97377.75;;;7.38;64.64
36386;BME280;24125;47.482;8.770;2023-02-20T07:26:00;97381.69;;;7.46;64.29
36386;BME280;24125;47.482;8.770;2023-02-20T07:28:33;97372.63;;;7.52;64.09
36386;BME280;24125;47.482;8.770;2023-02-20T07:31:07;97379.22;;;7.60;64.48
36386;BME280;24125;47.482;8.770;2023-02-20T07:33:41;97368.00;;;7.68;64.17
36386;BME280;24125;47.482;8.770;2023-02-20T07:36:14;97366.09;;;7.73;63.76
36386;BME280;24125;47.482;8.770;2023-02-20T07:38:54;97372.91;;;7.84;64.42
36386;BME280;24125;47.482;8.770;2023-02-20T07:41:29;97372.59;;;7.91;64.46
36386;BME280;24125;47.482;8.770;2023-02-20T07:44:03;97361.34;;;7.99;64.41
36386;BME280;24125;47.482;8.770;2023-02-20T07:46:36;97357.28;;;8.07;64.42
36386;BME280;24125;47.482;8.770;2023-02-20T07:49:11;97353.47;;;8.18;64.32
36386;BME280;24125;47.482;8.770;2023-02-20T07:51:44;97361.63;;;8.26;63.99
36386;BME280;24125;47.482;8.770;2023-02-20T07:54:17;97362.84;;;8.39;63.90
36386;BME280;24125;47.482;8.770;2023-02-20T07:56:49;97366.78;;;8.47;64.25
36386;BME280;24125;47.482;8.770;2023-02-20T07:59:22;97369.31;;;8.57;63.91
36386;BME280;24125;47.482;8.770;2023-02-20T08:01:55;97360.16;;;8.68;63.98
36386;BME280;24125;47.482;8.770;2023-02-20T08:04:30;97356.59;;;8.78;63.95
36386;BME280;24125;47.482;8.770;2023-02-20T08:07:03;97356.47;;;8.88;64.27
36386;BME280;24125;47.482;8.770;2023-02-20T08:09:37;97354.47;;;8.98;64.12
36386;BME280;24125;47.482;8.770;2023-02-20T08:12:10;97356.97;;;9.08;64.39
36386;BME280;24125;47.482;8.770;2023-02-20T08:14:43;97357.66;;;9.19;63.71
36386;BME280;24125;47.482;8.770;2023-02-20T08:17:16;97356.94;;;9.32;63.86
36386;BME280;24125;47.482;8.770;2023-02-20T08:19:50;97358.69;;;9.42;63.64
36386;BME280;24125;47.482;8.770;2023-02-20T08:22:23;97360.91;;;9.54;63.82
36386;BME280;24125;47.482;8.770;2023-02-20T08:25:12;97351.38;;;9.66;63.47
36386;BME280;24125;47.482;8.770;2023-02-20T08:27:46;97349.84;;;9.79;63.26
36386;BME280;24125;47.482;8.770;2023-02-20T08:30:22;97353.66;;;9.92;63.48
36386;BME280;24125;47.482;8.770;2023-02-20T08:32:55;97345.97;;;10.04;63.42
36386;BME280;24125;47.482;8.770;2023-02-20T08:35:29;97346.28;;;10.16;63.22
36386;BME280;24125;47.482;8.770;2023-02-20T08:38:06;97345.84;;;10.28;63.17
36386;BME280;24125;47.482;8.770;2023-02-20T08:40:40;97343.78;;;10.38;62.90
36386;BME280;24125;47.482;8.770;2023-02-20T08:43:13;97346.75;;;10.50;62.53
36386;BME280;24125;47.482;8.770;2023-02-20T08:45:46;97354.00;;;10.64;62.54
36386;BME280;24125;47.482;8.770;2023-02-20T08:48:18;97342.63;;;10.72;61.90
36386;BME280;24125;47.482;8.770;2023-02-20T08:50:53;97342.91;;;10.84;61.84
36386;BME280;24125;47.482;8.770;2023-02-20T08:53:26;97348.03;;;10.94;61.92
36386;BME280;24125;47.482;8.770;2023-02-20T08:55:59;97342.50;;;11.04;61.85
36386;BME280;24125;47.482;8.770;2023-02-20T08:58:32;97336.63;;;11.16;61.49
36386;BME280;24125;47.482;8.770;2023-02-20T09:01:05;97331.84;;;11.26;61.32
36386;BME280;24125;47.482;8.770;2023-02-20T09:03:38;97325.47;;;11.36;61.18
36386;BME280;24125;47.482;8.770;2023-02-20T09:06:14;97324.16;;;11.47;60.96
36386;BME280;24125;47.482;8.770;2023-02-20T09:08:46;97324.72;;;11.58;60.73
36386;BME280;24125;47.482;8.770;2023-02-20T09:11:20;97329.06;;;11.67;60.81
36386;BME280;24125;47.482;8.770;2023-02-20T09:13:53;97317.31;;;11.77;60.08
36386;BME280;24125;47.482;8.770;2023-02-20T09:16:26;97322.44;;;11.87;60.53
36386;BME280;24125;47.482;8.770;2023-02-20T09:18:59;97309.09;;;11.96;60.32
36386;BME280;24125;47.482;8.770;2023-02-20T09:21:34;97314.19;;;12.06;60.35
36386;BME280;24125;47.482;8.770;2023-02-20T09:24:07;97310.00;;;12.14;60.45
36386;BME280;24125;47.482;8.770;2023-02-20T09:26:40;97311.31;;;12.25;60.56
36386;BME280;24125;47.482;8.770;2023-02-20T09:29:12;97296.88;;;12.34;59.69
36386;BME280;24125;47.482;8.770;2023-02-20T09:31:45;97290.44;;;12.44;59.40
36386;BME280;24125;47.482;8.770;2023-02-20T09:34:19;97298.97;;;12.55;59.68
36386;BME280;24125;47.482;8.770;2023-02-20T09:36:53;97298.69;;;12.65;59.41
36386;BME280;24125;47.482;8.770;2023-02-20T09:39:26;97304.88;;;12.74;58.95
36386;BME280;24125;47.482;8.770;2023-02-20T09:42:07;97298.91;;;12.85;58.88
36386;BME280;24125;47.482;8.770;2023-02-20T09:44:53;97297.34;;;12.93;58.28
36386;BME280;24125;47.482;8.770;2023-02-20T09:47:39;97293.41;;;12.99;58.46
36386;BME280;24125;47.482;8.770;2023-02-20T09:53:16;97290.34;;;13.14;57.83
36386;BME280;24125;47.482;8.770;2023-02-20T09:55:52;97296.63;;;13.18;57.70
36386;BME280;24125;47.482;8.770;2023-02-20T09:58:32;97285.72;;;13.23;57.65
36386;BME280;24125;47.482;8.770;2023-02-20T10:01:07;97284.03;;;13.28;58.07
36386;BME280;24125;47.482;8.770;2023-02-20T10:03:51;97274.69;;;13.34;58.06
36386;BME280;24125;47.482;8.770;2023-02-20T10:06:27;97278.81;;;13.40;57.89
36386;BME280;24125;47.482;8.770;2023-02-20T10:09:05;97280.53;;;13.44;57.86
36386;BME280;24125;47.482;8.770;2023-02-20T10:11:49;97288.91;;;13.51;57.70
36386;BME280;24125;47.482;8.770;2023-02-20T10:14:47;97285.41;;;13.59;57.85
36386;BME280;24125;47.482;8.770;2023-02-20T10:17:32;97280.69;;;13.65;58.05
36386;BME280;24125;47.482;8.770;2023-02-20T10:20:10;97282.88;;;13.72;57.57
36386;BME280;24125;47.482;8.770;2023-02-20T10:22:50;97282.41;;;13.78;57.57
36386;BME280;24125;47.482;8.770;2023-02-20T10:25:29;97285.06;;;13.87;57.57
36386;BME280;24125;47.482;8.770;2023-02-20T10:28:06;97284.91;;;13.92;57.30
36386;BME280;24125;47.482;8.770;2023-02-20T10:30:41;97281.72;;;13.98;57.79
36386;BME280;24125;47.482;8.770;2023-02-20T10:33:23;97280.91;;;14.07;57.16
36386;BME280;24125;47.482;8.770;2023-02-20T10:36:01;97282.78;;;14.15;57.42
36386;BME280;24125;47.482;8.770;2023-02-20T10:38:42;97280.88;;;14.24;57.05
36386;BME280;24125;47.482;8.770;2023-02-20T10:41:23;97281.63;;;14.33;56.39
36386;BME280;24125;47.482;8.770;2023-02-20T10:44:01;97289.19;;;14.40;57.27
36386;BME280;24125;47.482;8.770;2023-02-20T10:46:40;97289.63;;;14.50;56.56
36386;BME280;24125;47.482;8.770;2023-02-20T10:49:23;97278.38;;;14.57;56.25
36386;BME280;24125;47.482;8.770;2023-02-20T10:52:01;97280.22;;;14.65;56.37
36386;BME280;24125;47.482;8.770;2023-02-20T10:54:39;97274.03;;;14.73;56.13
36386;BME280;24125;47.482;8.770;2023-02-20T10:57:19;97274.28;;;14.80;56.03
36386;BME280;24125;47.482;8.770;2023-02-20T10:59:57;97263.38;;;14.85;56.17
36386;BME280;24125;47.482;8.770;2023-02-20T11:02:42;97274.38;;;14.92;56.03
36386;BME280;24125;47.482;8.770;2023-02-20T11:05:18;97266.91;;;14.98;56.15
36386;BME280;24125;47.482;8.770;2023-02-20T11:07:52;97254.41;;;15.02;55.76
36386;BME280;24125;47.482;8.770;2023-02-20T11:10:25;97263.84;;;15.08;55.78
36386;BME280;24125;47.482;8.770;2023-02-20T11:13:00;97256.03;;;15.15;55.82
36386;BME280;24125;47.482;8.770;2023-02-20T11:15:34;97257.75;;;15.20;55.41
36386;BME280;24125;47.482;8.770;2023-02-20T11:18:16;97247.56;;;15.25;55.66
36386;BME280;24125;47.482;8.770;2023-02-20T11:20:52;97244.56;;;15.27;55.29
36386;BME280;24125;47.482;8.770;2023-02-20T11:23:36;97238.16;;;15.31;54.25
36386;BME280;24125;47.482;8.770;2023-02-20T11:26:28;97236.88;;;15.37;54.77
36386;BME280;24125;47.482;8.770;2023-02-20T11:29:14;97239.25;;;15.39;54.32
36386;BME280;24125;47.482;8.770;2023-02-20T11:31:48;97231.59;;;15.41;54.92
36386;BME280;24125;47.482;8.770;2023-02-20T11:34:23;97224.44;;;15.45;54.32
36386;BME280;24125;47.482;8.770;2023-02-20T11:37:04;97229.63;;;15.50;54.29
36386;BME280;24125;47.482;8.770;2023-02-20T11:39:45;97212.34;;;15.51;54.02
36386;BME280;24125;47.482;8.770;2023-02-20T11:42:19;97202.06;;;15.53;53.86
36386;BME280;24125;47.482;8.770;2023-02-20T11:45:12;97194.91;;;15.57;53.64
36386;BME280;24125;47.482;8.770;2023-02-20T11:47:45;97188.75;;;15.57;53.85
36386;BME280;24125;47.482;8.770;2023-02-20T11:50:19;97181.91;;;15.59;53.40
36386;BME280;24125;47.482;8.770;2023-02-20T11:52:58;97176.19;;;15.61;53.62
36386;BME280;24125;47.482;8.770;2023-02-20T11:55:31;97171.94;;;15.60;53.88
36386;BME280;24125;47.482;8.770;2023-02-20T11:58:04;97159.59;;;15.59;53.91
36386;BME280;24125;47.482;8.770;2023-02-20T12:00:46;97155.44;;;15.61;53.33
36386;BME280;24125;47.482;8.770;2023-02-20T12:03:22;97145.81;;;15.60;53.39
36386;BME280;24125;47.482;8.770;2023-02-20T12:05:56;97138.50;;;15.61;52.82
36386;BME280;24125;47.482;8.770;2023-02-20T12:08:46;97127.88;;;15.64;52.67
36386;BME280;24125;47.482;8.770;2023-02-20T12:11:25;97135.16;;;15.64;53.28
36386;BME280;24125;47.482;8.770;2023-02-20T12:13:59;97126.75;;;15.65;52.76
36386;BME280;24125;47.482;8.770;2023-02-20T12:16:58;97120.69;;;15.68;53.05
36386;BME280;24125;47.482;8.770;2023-02-20T12:19:44;97112.63;;;15.68;53.38
36386;BME280;24125;47.482;8.770;2023-02-20T12:22:24;97108.47;;;15.71;53.36
36386;BME280;24125;47.482;8.770;2023-02-20T12:25:10;97111.63;;;15.73;52.86
36386;BME280;24125;47.482;8.770;2023-02-20T12:27:56;97103.97;;;15.75;53.06
36386;BME280;24125;47.482;8.770;2023-02-20T12:30:50;97106.34;;;15.76;52.89
36386;BME280;24125;47.482;8.770;2023-02-20T12:33:49;97103.31;;;15.78;52.77
36386;BME280;24125;47.482;8.770;2023-02-20T12:36:29;97100.28;;;15.79;52.51
36386;BME280;24125;47.482;8.770;2023-02-20T12:39:06;97092.53;;;15.78;52.44
36386;BME280;24125;47.482;8.770;2023-02-20T12:41:55;97090.31;;;15.80;52.18
36386;BME280;24125;47.482;8.770;2023-02-20T12:44:54;97081.13;;;15.81;52.09
36386;BME280;24125;47.482;8.770;2023-02-20T12:47:33;97079.22;;;15.81;52.29
36386;BME280;24125;47.482;8.770;2023-02-20T12:50:46;97080.41;;;15.84;52.23
36386;BME280;24125;47.482;8.770;2023-02-20T12:53:32;97075.03;;;15.84;51.69
36386;BME280;24125;47.482;8.770;2023-02-20T12:56:23;97065.50;;;15.87;52.14
36386;BME280;24125;47.482;8.770;2023-02-20T12:59:04;97064.72;;;15.86;52.12
36386;BME280;24125;47.482;8.770;2023-02-20T13:01:40;97054.28;;;15.84;52.04
36386;BME280;24125;47.482;8.770;2023-02-20T13:04:21;97056.97;;;15.84;51.80
36386;BME280;24125;47.482;8.770;2023-02-20T13:07:01;97061.56;;;15.84;51.71
36386;BME280;24125;47.482;8.770;2023-02-20T13:09:38;97054.19;;;15.81;51.59
36386;BME280;24125;47.482;8.770;2023-02-20T13:12:15;97049.47;;;15.78;51.87
36386;BME280;24125;47.482;8.770;2023-02-20T13:14:59;97040.59;;;15.77;51.65
36386;BME280;24125;47.482;8.770;2023-02-20T13:17:40;97038.69;;;15.78;51.63
36386;BME280;24125;47.482;8.770;2023-02-20T13:20:17;97026.03;;;15.78;52.13
36386;BME280;24125;47.482;8.770;2023-02-20T13:23:01;97014.91;;;15.80;51.46
36386;BME280;24125;47.482;8.770;2023-02-20T13:25:37;97005.59;;;15.77;51.48
36386;BME280;24125;47.482;8.770;2023-02-20T13:28:26;97003.81;;;15.81;51.02
36386;BME280;24125;47.482;8.770;2023-02-20T13:31:22;97010.41;;;15.84;51.16
36386;BME280;24125;47.482;8.770;2023-02-20T13:34:25;97008.09;;;15.82;50.99
36386;BME280;24125;47.482;8.770;2023-02-20T13:36:58;97011.09;;;15.81;51.31
36386;BME280;24125;47.482;8.770;2023-02-20T13:39:42;97002.34;;;15.84;51.38
36386;BME280;24125;47.482;8.770;2023-02-20T13:42:32;97003.13;;;15.84;51.53
36386;BME280;24125;47.482;8.770;2023-02-20T13:45:35;97000.88;;;15.87;51.81
36386;BME280;24125;47.482;8.770;2023-02-20T13:48:23;96992.94;;;15.90;51.19
36386;BME280;24125;47.482;8.770;2023-02-20T13:51:35;96972.59;;;15.93;51.51
36386;BME280;24125;47.482;8.770;2023-02-20T13:54:17;96976.06;;;15.93;51.19
36386;BME280;24125;47.482;8.770;2023-02-20T13:56:56;96976.19;;;15.97;51.30
36386;BME280;24125;47.482;8.770;2023-02-20T13:59:31;96964.63;;;15.96;51.62
36386;BME280;24125;47.482;8.770;2023-02-20T14:02:17;96961.69;;;16.01;51.24
36386;BME280;24125;47.482;8.770;2023-02-20T14:04:53;96957.53;;;16.04;51.43
36386;BME280;24125;47.482;8.770;2023-02-20T14:07:28;96956.53;;;16.08;51.74
36386;BME280;24125;47.482;8.770;2023-02-20T14:10:05;96954.25;;;16.10;51.36
36386;BME280;24125;47.482;8.770;2023-02-20T14:12:43;96950.88;;;16.13;51.09
36386;BME280;24125;47.482;8.770;2023-02-20T14:15:17;96948.63;;;16.15;51.12